Time;durP1;ratioP1;P1;durP2;ratioP2;P2;SDS_P1;SDS_P2;PMS_P1;PMS_P2;Temp;Humidity;BMP_temperature;BMP_pressure;BME280_temperature;BME280_humidity;BME280_pressure;Samples;Min_cycle;Max_cycle;Signal;HPM_P1;HPM_P2
2022/04/09 00:02:21;;;;;;;3.33;2.70;;;16.00;99.90;;;;;;5014526;28;20203;-94
2022/04/09 00:04:48;;;;;;;3.00;2.70;;;16.00;99.90;;;;;;5014945;28;20425;-94
2022/04/09 00:07:14;;;;;;;3.57;2.40;;;16.00;99.90;;;;;;5017775;28;20325;-92
2022/04/09 00:09:40;;;;;;;3.30;2.47;;;16.00;99.90;;;;;;5016383;28;20530;-93
2022/04/09 00:12:07;;;;;;;5.00;4.60;;;16.00;99.90;;;;;;5017377;28;20424;-94
2022/04/09 00:14:32;;;;;;;3.17;2.50;;;16.00;99.90;;;;;;5017649;28;20179;-94
2022/04/09 00:16:58;;;;;;;4.80;2.80;;;16.00;99.90;;;;;;5031422;28;20442;-92
2022/04/09 00:19:24;;;;;;;3.20;2.80;;;16.00;99.90;;;;;;5040087;28;20174;-92
2022/04/09 00:21:50;;;;;;;3.80;2.67;;;16.00;99.90;;;;;;5038936;28;20247;-90
2022/04/09 00:24:15;;;;;;;4.37;3.20;;;16.00;99.90;;;;;;5038211;28;20186;-92
2022/04/09 00:26:41;;;;;;;2.50;2.30;;;16.00;99.90;;;;;;5041632;28;20559;-93
2022/04/09 00:29:07;;;;;;;5.33;2.77;;;16.00;99.90;;;;;;5040070;28;20226;-92
2022/04/09 00:31:33;;;;;;;3.50;2.93;;;16.00;99.90;;;;;;5041973;28;20439;-91
2022/04/09 00:33:59;;;;;;;3.40;2.10;;;16.00;99.90;;;;;;5037596;28;20550;-92
2022/04/09 00:36:25;;;;;;;3.10;2.80;;;16.00;99.90;;;;;;5035032;28;20496;-92
2022/04/09 00:38:51;;;;;;;4.23;2.70;;;16.00;99.90;;;;;;5034922;28;20432;-93
2022/04/09 00:41:17;;;;;;;8.17;3.10;;;16.00;99.90;;;;;;5035182;28;20933;-93
2022/04/09 00:43:44;;;;;;;3.27;2.50;;;16.00;99.90;;;;;;5034547;28;20197;-92
2022/04/09 00:46:14;;;;;;;3.17;2.63;;;16.00;99.90;;;;;;5036059;28;20431;-92
2022/04/09 00:48:41;;;;;;;5.67;3.00;;;15.90;99.90;;;;;;5035056;28;21037;-91
2022/04/09 00:51:07;;;;;;;4.30;3.90;;;15.90;99.90;;;;;;5036938;28;20419;-91
2022/04/09 00:53:35;;;;;;;4.20;3.20;;;15.90;99.90;;;;;;5037445;28;20488;-91
2022/04/09 00:56:20;;;;;;;5.03;2.93;;;15.80;99.90;;;;;;5036214;28;20558;-93
2022/04/09 00:58:55;;;;;;;5.57;3.20;;;15.70;99.90;;;;;;5035768;28;20435;-91
2022/04/09 01:01:22;;;;;;;3.53;2.37;;;15.60;99.90;;;;;;5036576;28;20423;-91
2022/04/09 01:03:50;;;;;;;3.93;2.77;;;15.50;99.90;;;;;;5035452;28;20436;-93
2022/04/09 01:06:16;;;;;;;3.10;2.63;;;15.50;99.90;;;;;;5035472;28;20947;-91
2022/04/09 01:08:42;;;;;;;3.03;2.70;;;15.40;99.90;;;;;;5037348;28;20467;-91
2022/04/09 01:11:08;;;;;;;4.23;2.40;;;15.40;99.90;;;;;;5037418;28;20274;-91
2022/04/09 01:13:36;;;;;;;6.37;3.30;;;15.30;99.90;;;;;;5035244;28;20285;-91
2022/04/09 01:16:03;;;;;;;3.77;2.87;;;15.30;99.90;;;;;;5028818;28;20429;-90
2022/04/09 01:18:31;;;;;;;6.13;3.17;;;15.20;99.90;;;;;;5016318;28;20503;-92
2022/04/09 01:21:01;;;;;;;3.40;2.73;;;15.20;99.90;;;;;;5016192;28;20436;-94
2022/04/09 01:23:27;;;;;;;3.27;3.00;;;15.20;99.90;;;;;;5017244;28;20543;-94
2022/04/09 01:25:56;;;;;;;2.50;2.20;;;15.30;99.90;;;;;;5018004;28;20424;-94
2022/04/09 01:28:22;;;;;;;4.37;2.90;;;15.30;99.90;;;;;;5015621;28;20472;-92
2022/04/09 01:30:48;;;;;;;4.50;3.00;;;15.30;99.90;;;;;;5016212;28;20899;-91
2022/04/09 01:33:15;;;;;;;3.50;2.73;;;15.40;99.90;;;;;;5017227;28;20195;-93
2022/04/09 01:35:41;;;;;;;4.53;3.50;;;15.40;99.90;;;;;;5032897;28;20275;-93
2022/04/09 01:38:07;;;;;;;3.43;3.03;;;15.40;99.90;;;;;;5021960;28;20468;-90
2022/04/09 01:40:33;;;;;;;7.17;3.60;;;15.40;99.90;;;;;;5019396;28;20507;-94
2022/04/09 01:42:58;;;;;;;4.27;3.20;;;15.40;99.90;;;;;;5016526;28;20421;-93
2022/04/09 01:45:24;;;;;;;4.13;3.43;;;15.40;99.90;;;;;;5014858;28;20676;-93
2022/04/09 01:47:50;;;;;;;7.83;4.17;;;15.40;99.90;;;;;;5013801;28;20269;-93
2022/04/09 01:50:16;;;;;;;4.57;3.20;;;15.40;99.90;;;;;;5015130;28;20827;-93
2022/04/09 01:52:41;;;;;;;4.77;3.10;;;15.30;99.90;;;;;;5014946;28;20199;-91
2022/04/09 01:55:08;;;;;;;3.40;2.90;;;15.30;99.90;;;;;;5015770;28;20183;-91
2022/04/09 01:57:34;;;;;;;5.03;3.33;;;15.30;99.90;;;;;;5014885;28;20195;-94
2022/04/09 02:00:00;;;;;;;3.70;3.10;;;15.20;99.90;;;;;;5013951;28;20498;-93
2022/04/09 02:02:26;;;;;;;3.10;2.80;;;15.20;99.90;;;;;;5013889;28;20440;-92
2022/04/09 02:04:52;;;;;;;4.80;3.70;;;15.20;99.90;;;;;;5017139;28;20937;-92
2022/04/09 02:07:19;;;;;;;8.63;3.77;;;15.10;99.90;;;;;;5017656;28;20455;-91
2022/04/09 02:09:45;;;;;;;4.40;3.20;;;15.10;99.90;;;;;;5033701;28;20226;-91
2022/04/09 02:12:11;;;;;;;5.33;3.40;;;15.00;99.90;;;;;;5017110;28;20438;-90
2022/04/09 02:14:37;;;;;;;7.53;3.87;;;15.00;99.90;;;;;;5018594;28;20197;-93
2022/04/09 02:17:02;;;;;;;5.17;3.53;;;15.00;99.90;;;;;;5033542;28;20447;-92
2022/04/09 02:19:28;;;;;;;4.80;3.67;;;14.90;99.90;;;;;;5037265;28;20450;-91
2022/04/09 02:21:54;;;;;;;4.43;3.40;;;14.90;99.90;;;;;;5038184;28;20189;-94
2022/04/09 02:24:20;;;;;;;5.37;4.20;;;14.90;99.90;;;;;;5054693;28;20174;-93
2022/04/09 02:26:45;;;;;;;4.57;4.17;;;14.90;99.90;;;;;;5039650;28;20177;-93
2022/04/09 02:29:11;;;;;;;5.40;4.60;;;14.90;99.90;;;;;;5041429;28;20352;-90
2022/04/09 02:31:37;;;;;;;6.97;3.60;;;14.80;99.90;;;;;;5061126;28;20198;-91
2022/04/09 02:34:04;;;;;;;7.27;4.73;;;14.80;99.90;;;;;;5059933;28;20534;-93
2022/04/09 02:36:32;;;;;;;4.90;4.00;;;14.80;99.90;;;;;;5042779;28;20405;-92
2022/04/09 02:38:57;;;;;;;4.63;3.80;;;14.80;99.90;;;;;;5050601;28;20411;-89
2022/04/09 02:41:54;;;;;;;4.50;4.00;;;14.80;99.90;;;;;;5064419;28;20601;-91
2022/04/09 02:44:20;;;;;;;3.80;3.10;;;14.70;99.90;;;;;;5056124;28;20189;-93
2022/04/09 02:46:48;;;;;;;4.20;3.73;;;14.70;99.90;;;;;;5039491;28;20419;-94
2022/04/09 02:49:15;;;;;;;4.03;3.00;;;14.60;99.90;;;;;;5039529;28;20871;-90
2022/04/09 02:51:40;;;;;;;3.73;3.33;;;14.60;99.90;;;;;;5058130;28;20468;-94
2022/04/09 02:54:06;;;;;;;5.60;4.30;;;14.50;99.90;;;;;;5063655;28;20403;-90
2022/04/09 02:56:32;;;;;;;4.67;4.17;;;14.50;99.90;;;;;;5065154;28;20196;-93
2022/04/09 02:58:57;;;;;;;6.20;3.63;;;14.50;99.90;;;;;;5041628;28;20223;-90
2022/04/09 03:01:27;;;;;;;4.90;4.33;;;14.50;99.90;;;;;;5041233;28;20193;-93
2022/04/09 03:03:53;;;;;;;4.10;3.63;;;14.40;99.90;;;;;;5059012;28;20213;-94
2022/04/09 03:06:18;;;;;;;3.87;3.53;;;14.40;99.90;;;;;;5054409;28;20483;-93
2022/04/09 03:08:44;;;;;;;5.60;4.10;;;14.40;99.90;;;;;;5054178;28;20218;-92
2022/04/09 03:11:10;;;;;;;4.73;3.50;;;14.30;99.90;;;;;;5036729;28;20211;-93
2022/04/09 03:13:35;;;;;;;3.77;3.47;;;14.30;99.90;;;;;;5038419;28;20201;-92
2022/04/09 03:16:01;;;;;;;7.20;3.90;;;14.30;99.90;;;;;;5055877;28;20190;-93
2022/04/09 03:18:27;;;;;;;5.57;4.73;;;14.30;99.90;;;;;;5038682;28;20194;-92
2022/04/09 03:20:52;;;;;;;7.23;5.73;;;14.30;99.90;;;;;;5038235;28;20652;-91
2022/04/09 03:23:18;;;;;;;7.93;5.57;;;14.30;99.90;;;;;;5038844;28;20227;-91
2022/04/09 03:25:44;;;;;;;9.33;6.73;;;14.30;99.90;;;;;;5038426;28;20183;-93
2022/04/09 03:28:09;;;;;;;7.80;5.90;;;14.30;99.90;;;;;;5039002;28;20290;-92
2022/04/09 03:30:35;;;;;;;7.43;4.50;;;14.30;99.90;;;;;;5039720;28;20179;-93
2022/04/09 03:33:01;;;;;;;8.40;4.47;;;14.20;99.90;;;;;;5038398;28;20686;-94
2022/04/09 03:35:27;;;;;;;5.23;4.50;;;14.20;99.90;;;;;;5037842;28;20662;-93
2022/04/09 03:37:53;;;;;;;5.93;4.30;;;14.20;99.90;;;;;;5052988;28;20534;-91
2022/04/09 03:40:19;;;;;;;4.37;3.80;;;14.20;99.90;;;;;;5038553;28;20446;-93
2022/04/09 03:42:44;;;;;;;5.63;3.60;;;14.10;99.90;;;;;;5046252;28;20459;-93
2022/04/09 03:45:10;;;;;;;5.37;4.00;;;14.10;99.90;;;;;;5035185;28;20189;-94
2022/04/09 03:47:36;;;;;;;4.90;4.20;;;14.10;99.90;;;;;;5035173;28;20706;-94
2022/04/09 03:50:06;;;;;;;4.57;3.97;;;14.10;99.90;;;;;;5036361;28;20415;-91
2022/04/09 03:52:32;;;;;;;4.70;3.90;;;14.00;99.90;;;;;;5035788;28;20202;-93
2022/04/09 03:54:57;;;;;;;5.90;5.03;;;14.00;99.90;;;;;;5035069;28;20828;-91
2022/04/09 03:57:23;;;;;;;5.80;4.67;;;14.00;99.90;;;;;;5035670;28;20786;-93
2022/04/09 03:59:54;;;;;;;9.73;5.17;;;14.00;99.90;;;;;;5036137;28;20187;-91
2022/04/09 04:02:23;;;;;;;5.60;4.80;;;13.90;99.90;;;;;;5035057;28;20455;-93
2022/04/09 04:04:49;;;;;;;10.33;6.83;;;13.90;99.90;;;;;;5036432;28;20425;-91
2022/04/09 04:07:20;;;;;;;8.83;5.97;;;13.90;99.90;;;;;;5036270;28;20455;-90
2022/04/09 04:09:46;;;;;;;8.03;5.30;;;13.90;99.90;;;;;;5035235;28;20510;-93
2022/04/09 04:12:12;;;;;;;9.60;6.47;;;13.90;99.90;;;;;;5035945;28;20424;-90
2022/04/09 04:14:37;;;;;;;10.03;6.03;;;13.80;99.90;;;;;;5036133;28;20481;-92
2022/04/09 04:17:03;;;;;;;21.70;9.63;;;13.80;99.90;;;;;;5020093;28;20205;-93
2022/04/09 04:19:29;;;;;;;19.10;11.27;;;13.80;99.90;;;;;;5033392;28;20648;-91
2022/04/09 04:21:55;;;;;;;13.90;8.90;;;13.80;99.90;;;;;;5017131;28;20449;-93
2022/04/09 04:24:23;;;;;;;6.53;5.07;;;13.80;99.90;;;;;;5015164;28;20175;-94
2022/04/09 04:26:49;;;;;;;10.00;5.30;;;13.80;99.90;;;;;;5032404;28;20210;-90
2022/04/09 04:29:15;;;;;;;5.03;4.53;;;13.80;99.90;;;;;;5016929;28;20559;-92
2022/04/09 04:31:40;;;;;;;9.57;5.17;;;13.80;99.90;;;;;;5016093;28;20455;-91
2022/04/09 04:34:06;;;;;;;10.37;5.50;;;13.70;99.90;;;;;;5016141;28;20187;-91
2022/04/09 04:36:32;;;;;;;9.03;6.67;;;13.70;99.90;;;;;;5015766;28;20214;-93
2022/04/09 04:38:58;;;;;;;7.27;4.80;;;13.70;99.90;;;;;;5017067;28;20182;-89
2022/04/09 04:41:24;;;;;;;5.57;4.23;;;13.70;99.90;;;;;;5017263;28;20519;-94
2022/04/09 04:43:52;;;;;;;9.93;4.67;;;13.70;99.90;;;;;;5017482;28;20456;-92
2022/04/09 04:46:19;;;;;;;6.90;4.60;;;13.70;99.90;;;;;;5019221;28;20456;-92
2022/04/09 04:48:46;;;;;;;4.90;4.40;;;13.70;99.90;;;;;;5016622;28;20469;-93
2022/04/09 04:51:12;;;;;;;5.30;4.80;;;13.70;99.90;;;;;;5029092;28;20441;-91
2022/04/09 04:53:37;;;;;;;6.43;4.77;;;13.70;99.90;;;;;;5026504;28;20420;-90
2022/04/09 04:56:03;;;;;;;7.07;5.40;;;13.70;99.90;;;;;;5021793;28;20186;-90
2022/04/09 04:58:29;;;;;;;8.90;7.43;;;13.70;99.90;;;;;;5014257;28;20199;-93
2022/04/09 05:00:56;;;;;;;8.03;6.00;;;13.60;99.90;;;;;;5015155;28;20856;-94
2022/04/09 05:03:21;;;;;;;6.57;5.70;;;13.60;99.90;;;;;;5015112;28;20486;-93
2022/04/09 05:05:47;;;;;;;6.10;4.63;;;13.60;99.90;;;;;;5015337;28;20897;-91
2022/04/09 05:08:13;;;;;;;6.70;5.30;;;13.60;99.90;;;;;;5015693;28;20828;-93
2022/04/09 05:10:39;;;;;;;8.20;4.97;;;13.60;99.90;;;;;;5014987;28;20198;-93
2022/04/09 05:13:05;;;;;;;7.27;5.10;;;13.60;99.90;;;;;;5014432;28;20198;-92
2022/04/09 05:15:31;;;;;;;7.03;4.67;;;13.60;99.90;;;;;;5019136;28;20463;-93
2022/04/09 05:17:56;;;;;;;7.50;4.30;;;13.60;99.90;;;;;;5034917;28;20482;-94
2022/04/09 05:20:23;;;;;;;10.33;7.83;;;13.60;99.90;;;;;;5036033;28;20190;-90
2022/04/09 05:22:48;;;;;;;26.43;12.23;;;13.60;99.90;;;;;;5039750;28;21010;-91
2022/04/09 05:25:17;;;;;;;20.10;12.73;;;13.60;99.90;;;;;;5034106;28;20462;-91
2022/04/09 05:27:43;;;;;;;11.07;7.80;;;13.60;99.90;;;;;;5035158;28;20218;-91
2022/04/09 05:30:09;;;;;;;8.27;6.40;;;13.60;99.90;;;;;;5037188;28;20458;-92
2022/04/09 05:32:36;;;;;;;6.47;5.50;;;13.60;99.90;;;;;;5034521;28;20946;-91
2022/04/09 05:35:06;;;;;;;6.10;4.93;;;13.60;99.90;;;;;;5037443;28;20451;-91
2022/04/09 05:37:32;;;;;;;6.70;4.90;;;13.60;99.90;;;;;;5040832;28;20435;-94
2022/04/09 05:39:58;;;;;;;5.60;5.03;;;13.70;99.90;;;;;;5052090;28;20434;-91
2022/04/09 05:42:25;;;;;;;6.33;4.90;;;13.70;99.90;;;;;;5042249;28;20424;-91
2022/04/09 05:44:52;;;;;;;6.60;5.17;;;13.80;99.90;;;;;;5020273;28;20417;-91
2022/04/09 05:47:18;;;;;;;6.97;6.07;;;13.80;99.90;;;;;;5026818;28;20429;-94
2022/04/09 05:49:44;;;;;;;7.73;5.43;;;13.80;99.90;;;;;;5018791;28;20512;-91
2022/04/09 05:52:09;;;;;;;7.87;5.50;;;13.90;99.90;;;;;;5023176;28;20428;-93
2022/04/09 05:54:35;;;;;;;12.33;4.70;;;13.90;99.90;;;;;;5026843;28;20225;-90
2022/04/09 05:57:02;;;;;;;6.30;5.10;;;14.00;99.90;;;;;;5016661;28;20428;-93
2022/04/09 05:59:29;;;;;;;6.00;4.80;;;14.00;99.90;;;;;;5014720;28;20415;-94
2022/04/09 06:01:55;;;;;;;7.20;4.60;;;14.10;99.90;;;;;;5009573;28;20437;-94
2022/04/09 06:04:21;;;;;;;4.53;4.13;;;14.10;99.90;;;;;;4999117;28;20423;-90
2022/04/09 06:06:48;;;;;;;5.17;4.07;;;14.20;99.90;;;;;;4998657;28;20235;-91
2022/04/09 06:09:15;;;;;;;6.13;4.93;;;14.20;99.90;;;;;;4997944;28;20473;-93
2022/04/09 06:11:42;;;;;;;5.90;4.87;;;14.30;99.90;;;;;;4997697;28;20448;-94
2022/04/09 06:14:08;;;;;;;4.93;4.37;;;14.30;99.90;;;;;;4996612;28;20409;-93
2022/04/09 06:16:38;;;;;;;6.07;3.93;;;14.40;99.90;;;;;;5020194;28;20442;-91
2022/04/09 06:19:05;;;;;;;5.63;4.37;;;14.40;99.90;;;;;;5038164;28;20411;-91
2022/04/09 06:21:33;;;;;;;8.33;5.00;;;14.40;99.90;;;;;;5036758;28;20438;-93
2022/04/09 06:24:00;;;;;;;7.47;5.20;;;14.50;99.90;;;;;;5016318;28;20431;-93
2022/04/09 06:26:25;;;;;;;4.57;4.17;;;14.50;99.90;;;;;;5018799;28;20440;-91
2022/04/09 06:28:51;;;;;;;5.27;4.40;;;14.50;99.90;;;;;;5016647;28;20469;-91
2022/04/09 06:31:17;;;;;;;5.57;4.67;;;14.50;99.90;;;;;;5017419;28;20603;-94
2022/04/09 06:33:42;;;;;;;5.80;4.70;;;14.50;99.90;;;;;;5016450;28;20306;-93
2022/04/09 06:36:08;;;;;;;11.70;7.13;;;14.50;99.90;;;;;;5014220;28;20181;-94
2022/04/09 06:38:34;;;;;;;6.87;5.67;;;14.50;99.90;;;;;;5031957;28;20195;-94
2022/04/09 06:41:00;;;;;;;7.87;5.43;;;14.50;99.90;;;;;;5017298;28;20443;-93
2022/04/09 06:43:26;;;;;;;5.10;4.10;;;14.50;99.90;;;;;;5017947;28;20202;-92
2022/04/09 06:45:52;;;;;;;6.87;3.53;;;14.50;99.90;;;;;;5017925;28;20487;-93
2022/04/09 06:48:18;;;;;;;5.67;4.07;;;14.60;99.90;;;;;;5017366;28;20494;-91
2022/04/09 06:50:44;;;;;;;4.00;3.43;;;14.60;99.90;;;;;;5019324;28;20416;-93
2022/04/09 06:53:09;;;;;;;3.80;3.13;;;14.60;99.90;;;;;;5019766;28;20203;-93
2022/04/09 06:55:35;;;;;;;3.83;3.43;;;14.60;99.90;;;;;;5019959;28;20191;-92
2022/04/09 06:58:02;;;;;;;4.37;3.50;;;14.60;99.90;;;;;;5033988;28;20214;-92
2022/04/09 07:00:28;;;;;;;3.57;3.20;;;14.60;99.90;;;;;;5033181;28;20409;-93
2022/04/09 07:02:54;;;;;;;4.43;3.30;;;14.60;99.90;;;;;;5023594;28;20436;-92
2022/04/09 07:05:20;;;;;;;7.73;3.60;;;14.60;99.90;;;;;;5015375;28;20428;-93
2022/04/09 07:07:49;;;;;;;5.70;4.07;;;14.70;99.90;;;;;;5018939;28;20246;-90
2022/04/09 07:10:15;;;;;;;4.70;3.67;;;14.70;99.90;;;;;;5040167;28;20459;-93
2022/04/09 07:12:42;;;;;;;2.93;2.50;;;14.80;99.90;;;;;;5020148;28;20953;-92
2022/04/09 07:15:09;;;;;;;2.77;2.10;;;14.80;99.90;;;;;;5019874;28;20431;-93
2022/04/09 07:17:35;;;;;;;2.20;1.70;;;14.90;99.90;;;;;;5021341;28;20523;-92
2022/04/09 07:20:05;;;;;;;1.97;1.77;;;15.00;99.90;;;;;;5038104;28;20936;-92
2022/04/09 07:22:33;;;;;;;2.73;1.50;;;15.10;99.90;;;;;;5038048;28;20419;-93
2022/04/09 07:24:58;;;;;;;1.83;1.60;;;15.20;99.90;;;;;;5036768;28;20796;-93
2022/04/09 07:27:38;;;;;;;1.27;1.17;;;15.20;99.90;;;;;;5036663;28;20432;-94
2022/04/09 07:30:06;;;;;;;2.87;2.00;;;15.30;99.90;;;;;;5035334;28;20458;-90
2022/04/09 07:32:32;;;;;;;2.63;2.00;;;15.40;99.90;;;;;;5036499;28;20424;-91
2022/04/09 07:34:58;;;;;;;2.30;2.07;;;15.40;99.90;;;;;;5035810;28;20419;-89
2022/04/09 07:37:24;;;;;;;1.93;1.63;;;15.50;99.90;;;;;;5036143;28;20221;-90
2022/04/09 07:39:50;;;;;;;1.70;1.57;;;15.60;99.90;;;;;;5036809;28;20771;-89
2022/04/09 07:42:15;;;;;;;1.60;1.47;;;15.70;99.90;;;;;;5039087;28;20514;-89
2022/04/09 07:44:41;;;;;;;2.03;1.40;;;15.80;99.90;;;;;;5037991;28;20245;-93
2022/04/09 07:47:07;;;;;;;2.07;1.13;;;15.90;99.90;;;;;;5022364;28;20206;-87
2022/04/09 07:49:33;;;;;;;1.27;1.00;;;15.90;99.90;;;;;;5023268;28;20525;-93
2022/04/09 07:51:58;;;;;;;0.80;0.80;;;16.00;99.90;;;;;;5040801;28;20195;-91
2022/04/09 07:54:24;;;;;;;4.00;2.30;;;16.10;99.90;;;;;;5026771;28;20197;-91
2022/04/09 07:56:50;;;;;;;0.80;0.80;;;16.10;99.90;;;;;;5018931;28;20195;-89
2022/04/09 07:59:16;;;;;;;1.00;0.90;;;16.10;99.90;;;;;;5036902;28;20318;-92
2022/04/09 08:01:42;;;;;;;1.23;1.00;;;16.10;99.90;;;;;;5035802;28;20892;-89
2022/04/09 08:04:07;;;;;;;1.17;1.00;;;16.10;99.90;;;;;;5019459;28;20179;-92
2022/04/09 08:06:33;;;;;;;1.13;0.70;;;16.10;99.90;;;;;;5015304;28;20468;-90
2022/04/09 08:08:59;;;;;;;0.97;0.87;;;16.20;99.90;;;;;;5032217;28;20663;-93
2022/04/09 08:11:26;;;;;;;1.00;0.90;;;16.20;99.90;;;;;;5018101;28;20190;-90
2022/04/09 08:13:52;;;;;;;1.17;1.03;;;16.30;99.90;;;;;;5032548;28;20676;-92
2022/04/09 08:16:17;;;;;;;1.33;0.93;;;16.40;99.90;;;;;;5034161;28;20431;-89
2022/04/09 08:18:43;;;;;;;1.27;1.10;;;16.50;99.90;;;;;;5035963;28;20928;-92
2022/04/09 08:21:09;;;;;;;1.97;1.40;;;16.60;99.90;;;;;;5023627;28;20256;-90
2022/04/09 08:23:35;;;;;;;2.67;1.93;;;16.70;99.90;;;;;;5024581;28;20207;-92
2022/04/09 08:26:03;;;;;;;4.70;2.20;;;16.80;99.90;;;;;;5018325;28;20898;-87
2022/04/09 08:28:31;;;;;;;2.47;1.70;;;16.90;99.90;;;;;;5023334;28;20282;-90
2022/04/09 08:30:57;;;;;;;2.83;1.50;;;17.00;99.90;;;;;;5012157;28;20447;-91
2022/04/09 08:33:23;;;;;;;2.10;1.63;;;17.00;99.90;;;;;;4997769;28;20515;-87
2022/04/09 08:35:49;;;;;;;3.00;1.50;;;17.10;99.90;;;;;;4998227;28;20428;-87
2022/04/09 08:38:16;;;;;;;2.20;1.33;;;17.10;99.90;;;;;;5015544;28;20854;-89
2022/04/09 08:40:43;;;;;;;2.20;1.40;;;17.10;99.90;;;;;;5015545;28;20178;-88
2022/04/09 08:43:10;;;;;;;2.70;1.90;;;17.20;99.90;;;;;;4998744;28;20836;-92
2022/04/09 08:45:40;;;;;;;1.40;1.27;;;17.30;99.90;;;;;;5000652;28;20459;-92
2022/04/09 08:48:07;;;;;;;1.70;1.60;;;17.30;99.90;;;;;;4998167;28;20488;-93
2022/04/09 08:50:35;;;;;;;1.80;1.30;;;17.40;99.90;;;;;;4997881;28;20478;-85
2022/04/09 08:53:06;;;;;;;1.93;1.60;;;17.40;99.90;;;;;;5015330;28;20420;-87
2022/04/09 08:55:34;;;;;;;1.17;1.00;;;17.50;99.90;;;;;;4998183;28;20524;-84
2022/04/09 08:57:59;;;;;;;1.53;1.30;;;17.50;99.90;;;;;;4998654;28;20483;-89
2022/04/09 09:00:25;;;;;;;2.10;1.30;;;17.50;99.90;;;;;;4996912;28;20437;-86
2022/04/09 09:02:56;;;;;;;1.63;1.13;;;17.60;99.90;;;;;;4995281;28;20195;-90
2022/04/09 09:05:39;;;;;;;1.23;1.13;;;17.70;99.90;;;;;;5003465;28;20683;-91
2022/04/09 09:08:07;;;;;;;1.67;1.57;;;17.90;99.90;;;;;;5026059;28;20487;-85
2022/04/09 09:10:34;;;;;;;3.57;2.30;;;18.00;99.90;;;;;;5033711;28;20416;-89
2022/04/09 09:13:00;;;;;;;2.00;1.80;;;18.00;99.90;;;;;;5033580;28;20428;-87
2022/04/09 09:15:26;;;;;;;2.43;2.10;;;18.10;99.90;;;;;;5036110;28;20424;-86
2022/04/09 09:17:59;;;;;;;3.27;2.03;;;18.10;99.90;;;;;;5034651;28;20194;-86
2022/04/09 09:20:26;;;;;;;2.20;2.00;;;18.10;99.90;;;;;;5034456;28;20473;-91
2022/04/09 09:22:53;;;;;;;3.47;3.10;;;18.20;99.90;;;;;;5035106;28;20475;-85
2022/04/09 09:25:19;;;;;;;2.77;2.43;;;18.20;99.90;;;;;;5034601;28;20450;-87
2022/04/09 09:27:54;;;;;;;3.20;2.90;;;18.30;99.90;;;;;;5035352;28;20436;-86
2022/04/09 09:30:20;;;;;;;3.80;2.40;;;18.30;99.90;;;;;;5055768;28;20189;-89
2022/04/09 09:33:05;;;;;;;3.00;2.70;;;18.40;99.90;;;;;;5038357;28;20439;-88
2022/04/09 09:35:50;;;;;;;4.00;3.60;;;18.30;99.90;;;;;;5038397;28;20813;-92
2022/04/09 09:38:23;;;;;;;3.10;2.80;;;18.20;99.90;;;;;;5041553;28;20442;-89
2022/04/09 09:40:49;;;;;;;5.93;3.83;;;18.10;99.90;;;;;;5025175;28;20448;-90
2022/04/09 09:43:20;;;;;;;4.87;3.60;;;18.10;99.90;;;;;;5036903;28;20444;-87
2022/04/09 09:45:47;;;;;;;5.17;3.40;;;18.10;99.90;;;;;;5022017;28;20428;-92
2022/04/09 09:48:27;;;;;;;5.17;3.60;;;18.10;99.90;;;;;;5020605;28;20478;-89
2022/04/09 09:50:57;;;;;;;4.00;3.30;;;18.10;99.90;;;;;;5040416;28;20423;-92
2022/04/09 09:53:28;;;;;;;4.63;3.47;;;18.00;99.90;;;;;;5045235;28;20499;-88
2022/04/09 09:55:54;;;;;;;3.60;3.30;;;17.80;99.90;;;;;;5041395;28;20419;-91
2022/04/09 09:58:21;;;;;;;4.10;3.57;;;17.70;99.90;;;;;;5037743;28;20428;-90
2022/04/09 10:00:48;;;;;;;5.20;4.70;;;17.60;99.90;;;;;;5037080;28;20444;-91
2022/04/09 10:03:16;;;;;;;4.10;3.27;;;17.40;99.90;;;;;;5037317;28;20420;-91
2022/04/09 10:05:42;;;;;;;4.83;4.00;;;17.40;99.90;;;;;;5037354;28;20427;-91
2022/04/09 10:08:09;;;;;;;1.00;0.80;;;17.40;99.90;;;;;;5016367;28;20479;-91
2022/04/09 10:10:37;;;;;;;0.90;0.80;;;17.30;99.90;;;;;;5017417;28;20861;-91
2022/04/09 10:13:06;;;;;;;1.47;0.50;;;17.10;99.90;;;;;;5017150;28;20436;-91
2022/04/09 10:15:33;;;;;;;4.60;4.03;;;16.70;99.90;;;;;;5017920;28;21007;-91
2022/04/09 10:18:00;;;;;;;1.60;1.50;;;16.40;99.90;;;;;;5019442;28;20523;-91
2022/04/09 10:20:30;;;;;;;2.90;2.27;;;16.00;99.90;;;;;;5007845;28;20435;-91
2022/04/09 10:22:58;;;;;;;2.40;2.20;;;15.60;99.90;;;;;;5021057;28;20503;-91
2022/04/09 10:25:29;;;;;;;8.50;5.50;;;15.20;99.90;;;;;;5019336;28;20841;-91
2022/04/09 10:28:03;;;;;;;9.50;5.77;;;14.90;99.90;;;;;;5001498;28;20447;-91
2022/04/09 10:30:40;;;;;;;4.67;3.00;;;14.70;99.90;;;;;;5017882;28;20992;-91
2022/04/09 10:33:28;;;;;;;2.30;2.07;;;14.50;99.90;;;;;;5017842;28;20458;-91
2022/04/09 10:35:55;;;;;;;1.73;1.30;;;14.40;99.90;;;;;;5000754;28;20440;-91
2022/04/09 10:38:23;;;;;;;1.07;0.97;;;14.30;99.90;;;;;;5017878;28;20432;-91
2022/04/09 10:40:57;;;;;;;1.60;1.50;;;14.20;99.90;;;;;;5000016;28;20942;-90
2022/04/09 10:43:25;;;;;;;0.63;0.63;;;14.00;99.90;;;;;;5000956;28;20447;-91
2022/04/09 10:46:00;;;;;;;2.60;1.30;;;13.90;99.90;;;;;;5001839;28;20427;-90
2022/04/09 10:48:37;;;;;;;1.27;1.00;;;13.90;99.90;;;;;;5003312;28;20479;-91
2022/04/09 10:51:08;;;;;;;0.93;0.83;;;13.80;99.90;;;;;;4998475;28;20528;-90
2022/04/09 10:53:45;;;;;;;1.10;1.00;;;13.70;99.90;;;;;;4999154;28;20441;-90
2022/04/09 10:56:11;;;;;;;0.70;0.50;;;13.70;99.90;;;;;;5000198;28;20420;-91
2022/04/09 10:59:28;;;;;;;0.60;0.50;;;13.60;99.90;;;;;;5017295;28;20489;-91
2022/04/09 11:01:54;;;;;;;1.37;0.70;;;13.50;99.90;;;;;;4999479;28;20459;-90
2022/04/09 11:07:02;;;;;;;0.70;0.60;;;13.30;99.90;;;;;;5025413;28;20456;-91
2022/04/09 11:09:58;;;;;;;1.07;0.70;;;13.20;99.90;;;;;;5037317;28;20456;-91
2022/04/09 11:12:31;;;;;;;2.73;2.03;;;13.10;99.90;;;;;;5036374;28;20478;-91
2022/04/09 11:14:58;;;;;;;1.40;1.30;;;13.00;99.90;;;;;;5036876;28;20427;-90
2022/04/09 11:17:30;;;;;;;1.20;1.10;;;13.00;99.90;;;;;;5036861;28;20198;-90
2022/04/09 11:20:00;;;;;;;1.37;1.13;;;12.90;99.90;;;;;;5035720;28;20432;-91
2022/04/09 11:22:33;;;;;;;2.20;1.33;;;12.80;99.90;;;;;;5036089;28;20428;-91
2022/04/09 11:25:00;;;;;;;1.92;1.45;;;12.80;99.90;;;;;;5036521;28;20447;-90
2022/04/09 11:27:27;;;;;;;1.47;1.37;;;12.70;99.90;;;;;;5035772;28;20240;-90
2022/04/09 11:29:54;;;;;;;2.38;1.77;;;12.60;99.90;;;;;;5036452;28;20475;-90
2022/04/09 11:32:21;;;;;;;6.22;1.63;;;12.60;99.90;;;;;;5036402;28;20668;-90
2022/04/09 11:34:48;;;;;;;1.77;1.60;;;12.60;99.90;;;;;;5036393;28;20178;-90
2022/04/09 11:37:14;;;;;;;1.40;1.30;;;12.60;99.90;;;;;;5036928;28;20324;-91
2022/04/09 11:39:42;;;;;;;1.67;1.30;;;12.50;99.90;;;;;;5036664;28;20228;-90
2022/04/09 11:42:09;;;;;;;1.58;1.48;;;12.50;99.90;;;;;;5035857;28;20190;-91
2022/04/09 11:44:41;;;;;;;1.25;0.80;;;12.40;99.90;;;;;;5035761;28;20189;-90
2022/04/09 11:47:09;;;;;;;6.13;4.00;;;12.40;99.90;;;;;;5036956;28;20194;-90
2022/04/09 11:49:35;;;;;;;2.22;2.13;;;12.30;99.90;;;;;;5036590;28;20206;-91
2022/04/09 11:52:00;;;;;;;2.38;1.95;;;12.20;99.90;;;;;;5037448;28;20197;-90
2022/04/09 11:54:38;;;;;;;2.93;2.63;;;12.10;99.90;;;;;;5037124;28;20238;-91
2022/04/09 11:57:09;;;;;;;1.77;1.52;;;12.10;99.90;;;;;;5036592;28;20715;-90
2022/04/09 11:59:34;;;;;;;1.70;1.60;;;12.00;99.90;;;;;;5036600;28;20185;-91
2022/04/09 12:02:00;;;;;;;2.57;2.23;;;12.00;99.90;;;;;;5038942;28;20210;-89
2022/04/09 12:04:34;;;;;;;2.80;2.60;;;12.00;99.90;;;;;;5040982;28;20182;-90
2022/04/09 12:07:02;;;;;;;2.88;2.22;;;12.00;99.90;;;;;;5040000;28;20230;-90
2022/04/09 12:09:29;;;;;;;2.50;2.00;;;12.00;99.90;;;;;;5037361;28;20217;-90
2022/04/09 12:12:00;;;;;;;3.22;2.92;;;12.00;99.90;;;;;;5044617;28;20290;-90
2022/04/09 12:14:26;;;;;;;5.05;3.33;;;12.00;99.90;;;;;;5043302;28;20186;-91
2022/04/09 12:16:51;;;;;;;3.13;2.83;;;12.00;99.90;;;;;;5020623;28;20199;-91
2022/04/09 12:19:28;;;;;;;3.97;3.57;;;12.00;99.90;;;;;;5015569;28;20762;-90
2022/04/09 12:21:54;;;;;;;4.35;3.53;;;12.00;99.90;;;;;;5015596;28;20203;-90
2022/04/09 12:24:20;;;;;;;3.37;3.07;;;12.00;99.90;;;;;;5016033;28;20175;-90
2022/04/09 12:26:52;;;;;;;3.50;3.20;;;11.90;99.90;;;;;;5016214;28;20225;-90
2022/04/09 12:29:23;;;;;;;3.35;3.05;;;11.80;99.90;;;;;;5017438;28;20475;-90
2022/04/09 12:31:51;;;;;;;3.25;2.97;;;11.70;99.90;;;;;;5020014;28;20691;-89
2022/04/09 12:34:18;;;;;;;2.92;2.70;;;11.60;99.90;;;;;;5015693;28;20198;-90
2022/04/09 12:37:06;;;;;;;3.50;3.15;;;11.50;99.90;;;;;;5016311;28;20186;-90
2022/04/09 12:39:40;;;;;;;4.57;3.55;;;11.50;99.90;;;;;;5015469;28;20186;-90
2022/04/09 12:42:06;;;;;;;3.50;3.30;;;11.40;99.90;;;;;;5014780;28;20203;-91
2022/04/09 12:44:34;;;;;;;3.92;3.50;;;11.40;99.90;;;;;;5015866;28;20198;-91
2022/04/09 12:47:01;;;;;;;3.67;3.38;;;11.30;99.90;;;;;;5014513;28;20237;-91
2022/04/09 12:49:36;;;;;;;3.00;2.70;;;11.30;99.90;;;;;;5031382;28;20264;-91
2022/04/09 12:52:04;;;;;;;2.92;2.67;;;11.20;99.90;;;;;;5015170;28;20205;-91